createdAt,value
2023-02-24T00:02:50.115Z,97602.94
2023-02-24T00:07:54.358Z,97590.66
2023-02-24T00:12:59.238Z,97596.66
2023-02-24T00:18:07.361Z,97592.78
2023-02-24T00:23:11.500Z,97586.59
2023-02-24T00:28:15.658Z,97577.00
2023-02-24T00:33:23.194Z,97572.78
2023-02-24T00:38:31.780Z,97566.59
2023-02-24T00:43:37.978Z,97562.06
2023-02-24T00:48:46.072Z,97556.53
2023-02-24T00:53:51.561Z,97558.13
2023-02-24T00:58:57.496Z,97554.53
2023-02-24T01:04:11.470Z,97550.97
2023-02-24T01:09:18.965Z,97539.28
2023-02-24T01:14:27.213Z,97540.56
2023-02-24T01:19:35.583Z,97529.06
2023-02-24T01:24:42.554Z,97524.34
2023-02-24T01:29:47.453Z,97528.19
2023-02-24T01:34:54.850Z,97527.06
2023-02-24T01:40:04.780Z,97514.41
2023-02-24T01:45:29.722Z,97500.19
2023-02-24T01:50:36.707Z,97497.41
2023-02-24T01:55:49.189Z,97486.84
2023-02-24T02:00:54.353Z,97488.63
2023-02-24T02:06:02.593Z,97483.00
2023-02-24T02:11:11.355Z,97473.41
2023-02-24T02:16:46.346Z,97468.69
2023-02-24T02:22:08.433Z,97463.03
2023-02-24T02:27:41.241Z,97456.06
2023-02-24T02:33:36.120Z,97453.13
2023-02-24T02:38:54.112Z,97452.31
2023-02-24T02:44:12.111Z,97439.66
2023-02-24T02:49:24.076Z,97433.97
2023-02-24T02:54:36.713Z,97430.28
2023-02-24T02:59:50.023Z,97425.09
2023-02-24T03:04:58.251Z,97408.00
2023-02-24T03:10:11.428Z,97412.41
2023-02-24T03:15:21.065Z,97402.81
2023-02-24T03:20:32.721Z,97402.81
2023-02-24T03:25:46.840Z,97405.59
2023-02-24T03:31:03.729Z,97400.75
2023-02-24T03:36:08.798Z,97401.84
2023-02-24T03:41:17.206Z,97400.41
2023-02-24T03:46:22.183Z,97397.81
2023-02-24T03:51:26.634Z,97387.00
2023-02-24T03:56:50.563Z,97383.56
2023-02-24T04:02:03.770Z,97373.19
2023-02-24T04:07:24.058Z,97372.38
2023-02-24T04:12:38.281Z,97363.63
2023-02-24T04:17:51.033Z,97353.69
2023-02-24T04:23:03.062Z,97344.47
2023-02-24T04:28:09.217Z,97321.47
2023-02-24T04:33:16.697Z,97324.25
2023-02-24T04:38:21.434Z,97323.34
2023-02-24T04:43:29.595Z,97319.25
2023-02-24T04:48:33.975Z,97314.22
2023-02-24T04:53:38.151Z,97306.50
2023-02-24T04:58:46.384Z,97294.88
2023-02-24T05:03:50.749Z,97286.81
2023-02-24T05:08:54.986Z,97277.41
2023-02-24T05:14:00.684Z,97285.38
2023-02-24T05:19:22.880Z,97277.91
2023-02-24T05:24:29.911Z,97271.06
2023-02-24T05:29:36.896Z,97265.50
2023-02-24T05:34:42.748Z,97266.50
2023-02-24T05:39:47.145Z,97262.75
2023-02-24T05:44:53.685Z,97257.91
2023-02-24T05:49:59.258Z,97259.19
2023-02-24T05:55:06.667Z,97262.56
2023-02-24T06:00:16.331Z,97259.19
2023-02-24T06:05:31.092Z,97260.78
2023-02-24T06:10:35.949Z,97256.22
2023-02-24T06:15:42.036Z,97254.59
2023-02-24T06:20:51.401Z,97251.69
2023-02-24T06:25:57.828Z,97243.72
2023-02-24T06:31:06.979Z,97240.03
2023-02-24T06:36:11.494Z,97236.97
2023-02-24T06:41:15.627Z,97243.25
2023-02-24T06:46:21.349Z,97237.53
2023-02-24T06:51:30.375Z,97231.16
2023-02-24T06:56:38.821Z,97230.09
2023-02-24T07:01:47.200Z,97227.22
2023-02-24T07:06:55.835Z,97228.31
2023-02-24T07:12:02.880Z,97222.13
2023-02-24T07:17:08.695Z,97212.56
2023-02-24T07:22:17.073Z,97218.19
2023-02-24T07:27:23.297Z,97220.00
2023-02-24T07:32:30.640Z,97211.13
2023-02-24T07:37:35.253Z,97205.41
2023-02-24T07:42:39.815Z,97202.38
2023-02-24T07:47:45.606Z,97199.97
2023-02-24T07:52:50.047Z,97196.56
2023-02-24T07:57:54.852Z,97188.41
2023-02-24T08:03:00.818Z,97184.38
2023-02-24T08:08:05.142Z,97166.41
2023-02-24T08:13:12.078Z,97171.25
2023-02-24T08:18:20.093Z,97167.22
2023-02-24T08:23:24.517Z,97165.16
2023-02-24T08:28:28.644Z,97165.88
2023-02-24T08:33:37.300Z,97160.97
2023-02-24T08:38:42.362Z,97158.19
2023-02-24T08:43:48.035Z,97150.22
2023-02-24T08:48:56.544Z,97149.25
2023-02-24T08:54:11.428Z,97145.75
2023-02-24T08:59:38.208Z,97141.72
2023-02-24T09:04:46.005Z,97134.66
2023-02-24T09:09:50.920Z,97130.09
2023-02-24T09:14:57.026Z,97134.38
2023-02-24T09:20:44.319Z,97125.84
2023-02-24T09:25:54.349Z,97119.50
2023-02-24T09:31:04.862Z,97120.44
2023-02-24T09:36:13.843Z,97113.22
2023-02-24T09:41:33.599Z,97111.25
2023-02-24T09:46:54.254Z,97111.25
2023-02-24T09:52:08.974Z,97114.81
2023-02-24T09:57:20.052Z,97103.56
2023-02-24T10:02:45.157Z,97103.31
2023-02-24T10:07:53.354Z,97099.66
2023-02-24T10:13:13.357Z,97092.50
2023-02-24T10:18:29.037Z,97084.81
2023-02-24T10:23:56.828Z,97083.28
2023-02-24T10:29:22.568Z,97074.25
2023-02-24T10:34:32.024Z,97075.78
2023-02-24T10:39:42.503Z,97066.38
2023-02-24T10:45:01.510Z,97063.78
2023-02-24T10:50:20.910Z,97049.47
2023-02-24T10:55:52.318Z,97043.03
2023-02-24T11:01:13.660Z,97036.13
2023-02-24T11:06:47.238Z,97027.66
2023-02-24T11:12:10.483Z,97019.38
2023-02-24T11:17:27.158Z,97014.88
2023-02-24T11:22:37.322Z,96999.13
2023-02-24T11:27:47.388Z,96993.94
2023-02-24T11:33:18.339Z,96990.34
2023-02-24T11:38:37.279Z,96945.38
2023-02-24T11:43:47.209Z,96959.31
2023-02-24T11:48:57.692Z,96955.38
2023-02-24T11:54:05.218Z,96953.06
2023-02-24T11:59:19.342Z,96936.50
2023-02-24T12:04:31.310Z,96932.53
2023-02-24T12:09:44.207Z,96933.31
2023-02-24T12:14:54.547Z,96920.28
2023-02-24T12:20:06.566Z,96916.50
2023-02-24T12:25:15.114Z,96912.50
2023-02-24T12:30:49.001Z,96905.38
2023-02-24T12:36:04.093Z,96894.63
2023-02-24T12:41:26.650Z,96891.63
2023-02-24T12:46:36.339Z,96884.75
2023-02-24T12:51:52.068Z,96869.13
2023-02-24T12:57:07.233Z,96869.41
2023-02-24T13:02:20.935Z,96858.44
2023-02-24T13:07:52.045Z,96853.16
2023-02-24T13:13:10.616Z,96836.97
2023-02-24T13:18:26.472Z,96842.44
2023-02-24T13:23:31.725Z,96828.94
2023-02-24T13:28:38.616Z,96828.31
2023-02-24T13:33:46.163Z,96829.53
2023-02-24T13:38:52.733Z,96830.13
2023-02-24T13:44:00.282Z,96821.41
2023-02-24T13:49:37.763Z,96819.44
2023-02-24T13:55:22.784Z,96816.97
2023-02-24T14:00:37.874Z,96796.25
2023-02-24T14:05:44.544Z,96792.69
2023-02-24T14:10:55.165Z,96801.75
2023-02-24T14:16:02.402Z,96808.03
2023-02-24T14:21:18.497Z,96812.97
2023-02-24T14:26:23.362Z,96807.91
2023-02-24T14:31:28.879Z,96794.41
2023-02-24T14:36:40.212Z,96792.38
2023-02-24T14:41:45.657Z,96799.31
2023-02-24T14:46:52.327Z,96784.88
2023-02-24T14:52:05.547Z,96752.16
2023-02-24T14:57:16.065Z,96743.09
2023-02-24T15:02:25.949Z,96742.47
2023-02-24T15:07:35.226Z,96725.13
2023-02-24T15:12:48.054Z,96721.88
2023-02-24T15:17:58.923Z,96711.38
2023-02-24T15:23:05.403Z,96701.06
2023-02-24T15:28:25.931Z,96681.09
2023-02-24T15:33:37.393Z,96673.28
2023-02-24T15:38:44.464Z,96674.75
2023-02-24T15:43:53.268Z,96672.31
2023-02-24T15:49:01.763Z,96668.91
2023-02-24T15:54:13.629Z,96676.03
2023-02-24T15:59:21.372Z,96665.09
2023-02-24T16:04:27.711Z,96642.09
2023-02-24T16:09:38.066Z,96635.69
2023-02-24T16:14:44.018Z,96631.63
2023-02-24T16:19:48.199Z,96628.34
2023-02-24T16:24:54.142Z,96642.84
2023-02-24T16:29:59.374Z,96634.81
2023-02-24T16:35:04.114Z,96639.03
2023-02-24T16:40:25.220Z,96627.06
2023-02-24T16:45:32.172Z,96621.44
2023-02-24T16:50:41.419Z,96622.44
2023-02-24T16:55:48.708Z,96618.06
2023-02-24T17:00:59.041Z,96627.84
2023-02-24T17:06:03.372Z,96611.50
2023-02-24T17:11:13.751Z,96616.69
2023-02-24T17:16:18.813Z,96621.75
2023-02-24T17:21:23.253Z,96628.72
2023-02-24T17:26:29.340Z,96613.56
2023-02-24T17:31:35.063Z,96591.59
2023-02-24T17:36:39.449Z,96572.47
2023-02-24T17:41:45.425Z,96564.81
2023-02-24T17:46:49.706Z,96565.81
2023-02-24T17:51:54.027Z,96559.75
2023-02-24T17:56:59.830Z,96551.31
2023-02-24T18:02:04.612Z,96549.50
2023-02-24T18:07:08.922Z,96532.75
2023-02-24T18:12:14.730Z,96521.78
2023-02-24T18:17:19.984Z,96516.13
2023-02-24T18:22:25.601Z,96508.06
2023-02-24T18:27:32.799Z,96513.41
2023-02-24T18:32:44.564Z,96503.69
2023-02-24T18:37:53.297Z,96504.81
2023-02-24T18:42:59.014Z,96500.94
2023-02-24T18:48:05.233Z,96499.47
2023-02-24T18:53:09.378Z,96505.13
2023-02-24T18:58:15.261Z,96492.19
2023-02-24T19:03:19.547Z,96491.09
2023-02-24T19:08:23.815Z,96487.69
2023-02-24T19:13:29.500Z,96471.81
2023-02-24T19:18:34.555Z,96465.47
2023-02-24T19:23:39.859Z,96458.50
2023-02-24T19:28:46.314Z,96462.88
2023-02-24T19:33:53.880Z,96437.69
2023-02-24T19:38:58.413Z,96434.31
2023-02-24T19:44:04.487Z,96425.56
2023-02-24T19:49:08.827Z,96420.75
2023-02-24T19:54:14.899Z,96410.00
2023-02-24T19:59:20.613Z,96410.00
2023-02-24T20:04:25.649Z,96405.56
2023-02-24T20:09:29.947Z,96383.25
2023-02-24T20:14:35.766Z,96390.78
2023-02-24T20:19:40.833Z,96381.88
2023-02-24T20:24:45.167Z,96368.94
2023-02-24T20:29:53.467Z,96368.75
2023-02-24T20:34:58.268Z,96357.16
2023-02-24T20:40:02.729Z,96362.28
2023-02-24T20:45:12.360Z,96358.72
2023-02-24T20:50:16.968Z,96351.16
2023-02-24T20:55:22.637Z,96346.56
2023-02-24T21:00:28.642Z,96344.88
2023-02-24T21:05:32.920Z,96338.97
2023-02-24T21:10:37.108Z,96334.16
2023-02-24T21:15:50.145Z,96326.59
2023-02-24T21:20:55.719Z,96319.34
2023-02-24T21:26:00.635Z,96313.31
2023-02-24T21:31:12.413Z,96304.16
2023-02-24T21:36:16.813Z,96291.44
2023-02-24T21:41:21.974Z,96279.91
2023-02-24T21:46:28.555Z,96269.09
2023-02-24T21:51:33.518Z,96270.59
2023-02-24T21:56:37.848Z,96254.00
2023-02-24T22:01:46.017Z,96240.66
2023-02-24T22:06:50.946Z,96246.75
2023-02-24T22:11:55.595Z,96238.63
2023-02-24T22:17:01.130Z,96236.59
2023-02-24T22:22:05.999Z,96230.13
2023-02-24T22:27:10.230Z,96235.44
2023-02-24T22:32:16.451Z,96253.38
2023-02-24T22:37:20.888Z,96257.44
2023-02-24T22:42:25.923Z,96251.03
2023-02-24T22:47:32.281Z,96249.94
2023-02-24T22:52:36.849Z,96249.56
2023-02-24T22:57:41.185Z,96245.94
2023-02-24T23:02:47.697Z,96243.91
2023-02-24T23:07:52.361Z,96246.03
2023-02-24T23:12:57.026Z,96236.88
2023-02-24T23:18:03.024Z,96239.09
2023-02-24T23:23:08.365Z,96230.91
2023-02-24T23:28:12.560Z,96219.69
2023-02-24T23:33:18.564Z,96200.50
2023-02-24T23:38:22.874Z,96191.06
2023-02-24T23:43:27.369Z,96182.72
2023-02-24T23:48:33.821Z,96175.19
2023-02-24T23:53:39.442Z,96172.94
2023-02-24T23:58:44.215Z,96154.91
